Time;durP1;ratioP1;P1;durP2;ratioP2;P2;SDS_P1;SDS_P2;PMS_P1;PMS_P2;Temp;Humidity;BMP_temperature;BMP_pressure;BME280_temperature;BME280_humidity;BME280_pressure;Samples;Min_cycle;Max_cycle;Signal;HPM_P1;HPM_P2
2021/04/04 00:00:13;;;;;;;5.75;3.02;;;;;;;2.43;70.26;101113.56;1731058;81;25788;-76
2021/04/04 00:02:43;;;;;;;6.55;3.12;;;;;;;2.41;70.21;101102.74;1752580;81;26331;-73
2021/04/04 00:05:12;;;;;;;9.40;3.05;;;;;;;2.34;70.17;101107.20;1702628;81;25776;-75
2021/04/04 00:07:41;;;;;;;8.10;3.45;;;;;;;2.32;70.25;101108.28;1660017;84;25916;-79
2021/04/04 00:10:10;;;;;;;7.17;2.80;;;;;;;2.31;70.36;101106.11;1691046;83;28412;-74
2021/04/04 00:12:39;;;;;;;7.30;3.17;;;;;;;2.31;70.41;101108.75;1691296;84;25392;-77
2021/04/04 00:15:09;;;;;;;8.03;3.40;;;;;;;2.30;70.46;101108.41;1731381;81;25880;-75
2021/04/04 00:17:36;;;;;;;;;;;;;;;2.29;70.42;101113.32;1733228;81;27637;-74
2021/04/04 00:20:11;;;;;;;9.68;3.27;;;;;;;2.27;70.55;101109.96;1730686;81;25862;-75
2021/04/04 00:22:39;;;;;;;8.58;3.15;;;;;;;2.24;70.56;101109.38;1751943;81;28583;-75
2021/04/04 00:25:10;;;;;;;7.75;3.40;;;;;;;2.22;70.50;101108.66;1669526;81;25737;-75
2021/04/04 00:27:38;;;;;;;11.12;3.27;;;;;;;2.17;70.49;101105.52;1696493;81;25957;-75
2021/04/04 00:30:14;;;;;;;10.18;3.05;;;;;;;2.10;70.59;101101.20;1731087;81;25953;-75
2021/04/04 00:32:42;;;;;;;8.55;3.77;;;;;;;2.09;70.74;101103.97;1746529;81;26154;-76
2021/04/04 00:35:19;;;;;;;11.90;3.77;;;;;;;2.03;70.83;101111.06;1704101;81;27536;-75
2021/04/04 00:37:49;;;;;;;7.90;3.72;;;;;;;2.00;70.86;101112.14;1698817;81;25771;-74
2021/04/04 00:40:24;;;;;;;13.23;3.87;;;;;;;2.00;70.93;101113.45;1727728;81;26071;-75
2021/04/04 00:42:52;;;;;;;9.38;4.15;;;;;;;1.99;71.02;101120.19;1733441;81;26421;-77
2021/04/04 00:45:23;;;;;;;8.30;3.50;;;;;;;1.96;71.05;101115.98;1675267;81;26081;-74
2021/04/04 00:47:51;;;;;;;8.45;3.60;;;;;;;1.91;71.17;101116.81;1719088;81;27567;-74
2021/04/04 00:50:23;;;;;;;9.35;3.50;;;;;;;1.87;71.30;101127.25;1730065;81;25868;-74
2021/04/04 00:52:52;;;;;;;5.60;3.10;;;;;;;1.80;71.37;101122.55;1733395;81;25770;-75
2021/04/04 00:55:20;;;;;;;7.72;3.45;;;;;;;1.74;71.65;101126.52;1668434;81;25772;-74
2021/04/04 00:57:49;;;;;;;8.80;3.37;;;;;;;1.70;71.74;101133.46;1699926;81;26280;-74
2021/04/04 01:00:21;;;;;;;9.45;3.65;;;;;;;1.66;71.87;101131.55;1732204;81;27327;-75
2021/04/04 01:02:50;;;;;;;9.45;3.47;;;;;;;1.62;72.06;101132.73;1757538;81;25398;-76
2021/04/04 01:05:24;;;;;;;8.50;3.35;;;;;;;1.61;72.19;101133.68;1674587;81;26357;-73
2021/04/04 01:07:47;;;;;;;9.88;3.17;;;;;;;1.64;72.32;101140.06;1730436;81;26251;-75
2021/04/04 01:10:15;;;;;;;12.40;3.35;;;;;;;1.66;72.34;101142.11;1757179;81;25946;-75
2021/04/04 01:13:37;;;;;;;7.55;3.58;;;;;;;1.65;72.43;101135.13;1730110;81;27589;-77
2021/04/04 01:16:27;;;;;;;10.30;3.42;;;;;;;1.66;72.53;101135.50;1730322;81;26087;-75
2021/04/04 01:19:08;;;;;;;8.38;3.62;;;;;;;1.64;72.75;101126.86;1732268;81;25973;-75
2021/04/04 01:21:46;;;;;;;6.62;3.62;;;;;;;1.62;72.81;101137.17;1730643;81;25930;-75
2021/04/04 01:24:22;;;;;;;10.90;3.77;;;;;;;1.63;72.84;101127.80;1757665;81;25756;-75
2021/04/04 01:27:17;;;;;;;8.13;3.67;;;;;;;1.66;72.98;101132.02;1733364;81;27536;-75
2021/04/04 01:29:46;;;;;;;8.05;3.83;;;;;;;1.65;72.94;101131.67;1733674;81;25841;-75
2021/04/04 01:32:14;;;;;;;9.15;3.47;;;;;;;1.59;73.05;101132.95;1757077;81;26360;-76
2021/04/04 01:34:43;;;;;;;8.68;4.20;;;;;;;1.54;73.19;101133.30;1757324;81;26454;-76
2021/04/04 01:37:13;;;;;;;8.50;3.72;;;;;;;1.54;73.37;101133.30;1683510;81;25790;-79
2021/04/04 01:39:47;;;;;;;8.05;4.22;;;;;;;1.56;73.45;101130.57;1733745;81;27519;-75
2021/04/04 01:42:18;;;;;;;11.10;4.22;;;;;;;1.57;73.55;101130.91;1733102;81;25813;-76
2021/04/04 01:44:47;;;;;;;10.82;3.90;;;;;;;1.56;73.72;101129.25;1725085;81;25929;-73
2021/04/04 01:47:16;;;;;;;13.28;3.67;;;;;;;1.53;73.74;101123.72;1757016;81;26053;-76
2021/04/04 01:49:45;;;;;;;7.30;4.08;;;;;;;1.51;73.82;101126.11;1693307;81;25782;-75
2021/04/04 01:52:13;;;;;;;12.10;4.05;;;;;;;1.49;74.03;101123.59;1698855;81;27641;-76
2021/04/04 01:54:41;;;;;;;11.28;5.00;;;;;;;1.50;74.18;101126.58;1709250;81;25833;-76
2021/04/04 01:57:11;;;;;;;9.15;4.08;;;;;;;1.53;74.37;101121.08;1757298;81;25783;-74
2021/04/04 01:59:39;;;;;;;6.72;3.65;;;;;;;1.55;74.57;101123.12;1757630;81;26437;-74
2021/04/04 02:02:07;;;;;;;9.85;4.03;;;;;;;1.54;74.39;101125.38;1702789;81;25817;-74
2021/04/04 02:04:36;;;;;;;8.58;3.20;;;;;;;1.58;74.51;101130.79;1701222;81;28443;-75
2021/04/04 02:07:03;;;;;;;12.80;4.25;;;;;;;1.56;74.46;101126.11;1732305;81;26026;-75
2021/04/04 02:09:34;;;;;;;8.95;4.37;;;;;;;1.60;74.66;101132.48;1757543;81;25847;-75
2021/04/04 02:12:03;;;;;;;14.30;4.30;;;;;;;1.61;74.79;101130.19;1707460;81;26825;-75
2021/04/04 02:14:31;;;;;;;9.60;3.60;;;;;;;1.58;74.73;101130.79;1733552;81;26085;-77
2021/04/04 02:17:00;;;;;;;14.68;5.20;;;;;;;1.57;74.91;101133.55;1732450;81;27335;-74
2021/04/04 02:19:29;;;;;;;7.67;4.12;;;;;;;1.56;74.91;101134.03;1752576;81;25726;-75
2021/04/04 02:21:59;;;;;;;9.35;3.80;;;;;;;1.63;75.06;101135.72;1669712;81;25866;-75
2021/04/04 02:24:29;;;;;;;14.30;5.60;;;;;;;1.69;75.04;101139.21;1699011;81;26490;-75
2021/04/04 02:26:57;;;;;;;9.13;4.78;;;;;;;1.72;75.12;101139.47;1732635;81;26138;-74
2021/04/04 02:29:25;;;;;;;15.28;5.60;;;;;;;1.71;75.11;101141.25;1757755;81;27511;-75
2021/04/04 02:31:59;;;;;;;13.88;4.42;;;;;;;1.78;75.15;101140.31;1669659;81;26451;-74
2021/04/04 02:34:37;;;;;;;10.08;4.03;;;;;;;1.81;75.08;101146.22;1758851;81;25740;-76
2021/04/04 02:37:06;;;;;;;10.35;3.58;;;;;;;1.81;75.01;101138.77;1732295;81;26090;-74
2021/04/04 02:39:41;;;;;;;12.82;4.25;;;;;;;1.82;75.05;101133.36;1752847;81;26544;-76
2021/04/04 02:42:10;;;;;;;9.03;3.83;;;;;;;1.81;74.99;101129.52;1731636;81;27540;-76
2021/04/04 02:44:39;;;;;;;9.80;4.03;;;;;;;1.83;75.16;101132.88;1732001;81;26222;-75
2021/04/04 02:47:10;;;;;;;10.05;4.25;;;;;;;1.79;74.97;101133.61;1753071;81;25835;-75
2021/04/04 02:49:39;;;;;;;8.30;4.00;;;;;;;1.80;75.13;101134.43;1754091;81;25525;-78
2021/04/04 02:52:08;;;;;;;10.18;4.50;;;;;;;1.80;75.13;101130.47;1704287;81;25445;-77
2021/04/04 02:54:38;;;;;;;11.03;3.83;;;;;;;1.82;75.14;101133.86;1725666;81;28057;-74
2021/04/04 02:57:08;;;;;;;8.63;4.72;;;;;;;1.82;75.10;101133.86;1704095;81;26338;-75
2021/04/04 02:59:50;;;;;;;10.23;3.95;;;;;;;1.83;75.21;101137.70;1749399;81;26536;-77
2021/04/04 03:02:19;;;;;;;9.83;4.28;;;;;;;1.82;75.17;101137.32;1724224;81;26357;-74
2021/04/04 03:04:49;;;;;;;12.95;4.42;;;;;;;1.84;75.28;101136.72;1707916;81;25780;-74
2021/04/04 03:07:22;;;;;;;8.25;3.90;;;;;;;1.88;75.22;101138.66;1752398;81;27563;-75
2021/04/04 03:09:52;;;;;;;11.85;4.78;;;;;;;1.89;75.27;101137.69;1753510;81;26165;-75
2021/04/04 03:12:22;;;;;;;10.43;4.40;;;;;;;1.90;75.29;101139.39;1668733;81;26282;-74
2021/04/04 03:14:52;;;;;;;14.23;5.00;;;;;;;1.88;75.24;101146.59;1732739;81;26446;-76
2021/04/04 03:17:20;;;;;;;8.68;3.70;;;;;;;1.86;75.31;101141.91;1754077;81;25539;-76
2021/04/04 03:19:48;;;;;;;12.37;4.05;;;;;;;1.84;75.30;101142.00;1754252;81;28277;-75
2021/04/04 03:22:17;;;;;;;10.38;4.37;;;;;;;1.76;75.23;101140.44;1669478;81;26211;-73
2021/04/04 03:24:46;;;;;;;13.72;4.22;;;;;;;1.74;75.48;101144.14;1731966;81;25942;-74
2021/04/04 03:27:16;;;;;;;12.15;4.28;;;;;;;1.71;75.54;101140.44;1707552;81;26270;-76
2021/04/04 03:29:45;;;;;;;13.95;4.95;;;;;;;1.68;75.78;101136.23;1724221;81;25833;-74
2021/04/04 03:32:13;;;;;;;10.65;4.35;;;;;;;1.64;75.67;101140.53;1669730;81;27623;-75
2021/04/04 03:34:41;;;;;;;8.45;3.60;;;;;;;1.62;76.03;101143.30;1732307;81;26434;-75
2021/04/04 03:37:10;;;;;;;9.50;3.80;;;;;;;1.55;76.16;101136.80;1723508;81;25774;-76
2021/04/04 03:39:37;;;;;;;10.35;4.58;;;;;;;1.51;76.11;101140.62;1756966;81;26459;-75
2021/04/04 03:42:08;;;;;;;10.32;3.75;;;;;;;1.46;75.97;101134.37;1706931;81;25797;-74
2021/04/04 03:44:39;;;;;;;4.87;3.58;;;;;;;1.43;76.14;101141.19;1734171;81;27548;-75
2021/04/04 03:47:08;;;;;;;8.50;3.85;;;;;;;1.34;76.18;101139.27;1732192;81;25931;-74
2021/04/04 03:49:39;;;;;;;16.30;5.80;;;;;;;1.25;76.18;101149.17;1757202;81;25816;-74
2021/04/04 03:52:07;;;;;;;11.90;4.15;;;;;;;1.24;76.19;101150.12;1733311;81;25907;-74
2021/04/04 03:54:35;;;;;;;8.45;5.25;;;;;;;1.27;76.28;101145.94;1733678;81;25930;-75
2021/04/04 03:57:05;;;;;;;9.88;4.08;;;;;;;1.25;76.19;101149.64;1732268;81;26964;-75
2021/04/04 03:59:34;;;;;;;9.15;4.37;;;;;;;1.20;76.22;101149.13;1753221;81;26122;-76
2021/04/04 04:02:02;;;;;;;11.15;4.58;;;;;;;1.18;76.25;101155.00;1684185;81;26261;-76
2021/04/04 04:04:30;;;;;;;11.20;5.25;;;;;;;1.16;76.31;101143.72;1705882;81;25731;-75
2021/04/04 04:06:58;;;;;;;10.58;3.80;;;;;;;1.05;76.46;101153.75;1757632;81;26217;-75
2021/04/04 04:09:26;;;;;;;11.75;4.55;;;;;;;1.00;76.52;101166.92;1757517;81;27520;-74
2021/04/04 04:11:54;;;;;;;9.70;4.08;;;;;;;0.99;76.79;101163.91;1695310;81;26326;-75
2021/04/04 04:14:23;;;;;;;10.10;4.12;;;;;;;0.98;76.91;101161.77;1709516;81;26171;-75
2021/04/04 04:16:51;;;;;;;12.55;4.15;;;;;;;1.00;76.93;101172.20;1732205;81;26270;-74
2021/04/04 04:19:19;;;;;;;9.80;3.62;;;;;;;1.03;77.06;101168.00;1757854;81;26409;-74
2021/04/04 04:21:47;;;;;;;8.53;4.15;;;;;;;1.01;77.14;101167.27;1733661;81;27544;-75
2021/04/04 04:24:16;;;;;;;9.98;4.20;;;;;;;1.02;77.29;101168.97;1733472;81;26457;-74
2021/04/04 04:26:47;;;;;;;9.80;4.17;;;;;;;1.00;77.30;101165.61;1732392;81;25846;-73
2021/04/04 04:29:17;;;;;;;8.38;4.50;;;;;;;1.01;77.37;101161.53;1753319;81;25825;-75
2021/04/04 04:31:48;;;;;;;13.78;4.62;;;;;;;1.05;77.37;101162.98;1684614;81;25827;-75
2021/04/04 04:34:17;;;;;;;9.48;3.92;;;;;;;1.09;77.36;101162.30;1730334;81;27614;-75
2021/04/04 04:36:46;;;;;;;10.55;4.47;;;;;;;1.14;77.46;101158.83;1727270;81;25564;-75
2021/04/04 04:39:14;;;;;;;11.25;4.65;;;;;;;1.21;77.48;101164.88;1743896;81;25876;-76
2021/04/04 04:41:46;;;;;;;13.08;5.17;;;;;;;1.30;77.41;101166.84;1704413;81;26593;-75
2021/04/04 04:44:28;;;;;;;11.97;4.35;;;;;;;1.41;77.26;101158.13;1746205;79;25766;-75
2021/04/04 04:46:55;;;;;;;8.58;4.08;;;;;;;1.40;77.29;101158.59;1688045;82;26099;-74
2021/04/04 04:49:23;;;;;;;24.60;13.13;;;;;;;1.45;77.25;101161.70;1698833;82;27333;-73
2021/04/04 04:51:51;;;;;;;139.18;74.77;;;;;;;1.48;77.19;101155.36;1725938;81;25881;-73
2021/04/04 04:54:18;;;;;;;110.90;66.62;;;;;;;1.47;77.13;101148.42;1659884;82;25943;-76
2021/04/04 04:56:47;;;;;;;30.30;15.05;;;;;;;1.53;77.20;101152.76;1693295;82;25860;-74
2021/04/04 04:59:16;;;;;;;10.60;5.72;;;;;;;1.58;77.22;101152.89;1731638;82;25768;-75
2021/04/04 05:01:46;;;;;;;19.12;7.75;;;;;;;1.60;77.24;101157.09;1724896;82;27622;-75
2021/04/04 05:04:14;;;;;;;33.73;26.20;;;;;;;1.63;77.23;101162.13;1666496;82;25846;-75
2021/04/04 05:06:45;;;;;;;26.60;19.45;;;;;;;1.66;77.23;101168.98;1690114;82;25801;-75
2021/04/04 05:09:13;;;;;;;19.55;12.58;;;;;;;1.69;77.23;101164.80;1693751;82;26193;-76
2021/04/04 05:11:45;;;;;;;21.12;10.65;;;;;;;1.72;77.26;101161.91;1729740;82;25962;-75
2021/04/04 05:14:14;;;;;;;19.80;9.85;;;;;;;1.70;77.03;101159.39;1664395;82;27817;-78
2021/04/04 05:16:42;;;;;;;15.32;7.22;;;;;;;1.68;77.07;101158.67;1663971;82;25998;-77
2021/04/04 05:19:11;;;;;;;19.85;8.43;;;;;;;1.71;77.14;101164.20;1669971;82;26266;-74
2021/04/04 05:21:42;;;;;;;14.73;6.55;;;;;;;1.73;77.25;101168.42;1721863;82;25797;-76
2021/04/04 05:24:13;;;;;;;14.38;6.90;;;;;;;1.75;77.21;101167.82;1685912;82;25907;-76
2021/04/04 05:26:42;;;;;;;;;;;;;;;1.75;77.10;101170.94;1685163;82;27621;-76
2021/04/04 05:29:16;;;;;;;11.25;5.60;;;;;;;1.74;76.99;101167.91;1710416;82;25767;-77
2021/04/04 05:31:50;;;;;;;14.53;6.30;;;;;;;1.74;77.09;101171.41;1686019;82;25815;-78
2021/04/04 05:34:22;;;;;;;12.43;6.03;;;;;;;1.77;77.12;101180.43;1720119;82;26202;-75
2021/04/04 05:36:59;;;;;;;15.40;5.90;;;;;;;1.86;77.28;101183.66;1693644;81;25902;-75
2021/04/04 05:39:30;;;;;;;15.25;5.53;;;;;;;1.89;77.05;101182.13;1689296;82;27299;-74
2021/04/04 05:42:01;;;;;;;13.95;5.78;;;;;;;1.91;77.21;101183.32;1675526;82;26564;-76
2021/04/04 05:44:58;;;;;;;16.37;6.47;;;;;;;1.98;77.37;101185.39;1687785;81;25584;-76
2021/04/04 05:47:49;;;;;;;12.53;6.50;;;;;;;2.03;77.26;101187.17;1684753;81;25768;-76
2021/04/04 05:50:37;;;;;;;12.58;5.55;;;;;;;2.08;77.28;101180.22;1707532;81;25895;-76
2021/04/04 05:53:25;;;;;;;15.60;8.03;;;;;;;2.10;77.01;101175.19;1713214;81;28425;-76
2021/04/04 05:56:24;;;;;;;15.18;5.62;;;;;;;2.10;76.95;101176.98;1736132;81;25766;-76
2021/04/04 05:59:05;;;;;;;11.78;5.55;;;;;;;2.14;77.08;101184.55;1710226;81;25822;-75
2021/04/04 06:01:38;;;;;;;13.62;5.90;;;;;;;2.16;76.98;101193.20;1710253;80;25925;-79
2021/04/04 06:04:50;;;;;;;12.60;5.72;;;;;;;2.16;76.95;101192.39;1697740;81;25927;-76
2021/04/04 06:08:06;;;;;;;10.50;5.17;;;;;;;2.16;76.90;101191.88;1732059;81;27628;-75
2021/04/04 06:10:47;;;;;;;14.78;5.75;;;;;;;2.21;76.83;101200.31;1704800;81;25793;-76
2021/04/04 06:13:23;;;;;;;12.70;5.95;;;;;;;2.25;76.72;101196.47;1736652;81;25799;-75
2021/04/04 06:16:29;;;;;;;11.12;5.20;;;;;;;2.26;76.67;101195.98;1715603;81;26182;-74
2021/04/04 06:19:38;;;;;;;11.90;5.72;;;;;;;2.28;76.69;101200.20;1732470;81;25784;-75
2021/04/04 06:22:26;;;;;;;11.85;5.25;;;;;;;2.34;76.70;101202.36;1741323;80;27617;-78
2021/04/04 06:25:10;;;;;;;13.28;5.90;;;;;;;2.33;76.73;101204.62;1700256;83;25979;-78
2021/04/04 06:27:57;;;;;;;8.40;5.00;;;;;;;2.37;76.76;101202.61;1713357;81;25821;-78
2021/04/04 06:30:50;;;;;;;8.70;4.33;;;;;;;2.47;77.21;101201.39;1735676;81;25794;-76
2021/04/04 06:33:42;;;;;;;9.55;4.47;;;;;;;2.61;77.21;101202.48;1703663;81;26095;-76
2021/04/04 06:36:47;;;;;;;13.45;5.20;;;;;;;2.66;77.25;101198.98;1718300;81;27362;-76
2021/04/04 06:39:58;;;;;;;10.40;5.08;;;;;;;2.73;77.05;101198.39;1727421;81;25787;-75
2021/04/04 06:43:08;;;;;;;8.30;4.60;;;;;;;2.77;76.59;101205.11;1738152;80;25874;-77
2021/04/04 06:46:11;;;;;;;10.70;4.73;;;;;;;2.86;76.67;101195.59;1713436;81;25858;-75
2021/04/04 06:49:18;;;;;;;7.53;3.65;;;;;;;3.01;76.96;101198.34;1720840;81;26137;-76
2021/04/04 06:52:14;;;;;;;7.40;3.98;;;;;;;3.14;76.97;101196.39;1732219;80;27522;-75
2021/04/04 06:55:05;;;;;;;7.42;3.42;;;;;;;3.20;76.32;101199.00;1731790;81;26418;-75
2021/04/04 06:57:50;;;;;;;11.20;4.90;;;;;;;3.23;75.94;101200.91;1716422;81;25686;-75
2021/04/04 07:00:42;;;;;;;7.95;3.75;;;;;;;3.28;75.81;101199.20;1714245;81;25892;-74
2021/04/04 07:03:19;;;;;;;8.43;4.17;;;;;;;3.36;75.64;101195.47;1731927;81;25433;-74
2021/04/04 07:06:01;;;;;;;9.05;3.45;;;;;;;3.44;75.22;101196.52;1731868;81;27476;-76
2021/04/04 07:08:43;;;;;;;7.87;3.70;;;;;;;3.54;75.54;101197.44;1708961;81;26376;-76
2021/04/04 07:11:24;;;;;;;9.40;3.58;;;;;;;3.64;74.76;101189.55;1705964;81;25876;-74
2021/04/04 07:14:06;;;;;;;10.72;3.40;;;;;;;3.74;74.62;101192.63;1704844;81;25819;-76
2021/04/04 07:16:41;;;;;;;6.05;2.90;;;;;;;3.86;73.66;101198.71;1729039;81;25741;-75
2021/04/04 07:20:04;;;;;;;6.22;2.58;;;;;;;3.99;72.67;101202.01;1692094;84;27544;-76
2021/04/04 07:23:09;;;;;;;4.97;2.90;;;;;;;4.06;71.93;101199.69;1677400;83;25774;-74
2021/04/04 07:25:54;;;;;;;7.87;3.15;;;;;;;4.15;71.28;101208.19;1666728;84;25775;-74
2021/04/04 07:28:57;;;;;;;7.20;3.12;;;;;;;4.19;71.14;101217.05;1688045;84;25821;-75
2021/04/04 07:31:29;;;;;;;8.88;2.62;;;;;;;4.27;71.36;101215.08;1673765;84;25869;-75
2021/04/04 07:34:11;;;;;;;6.85;3.45;;;;;;;4.40;71.17;101211.73;1663361;84;27354;-75
2021/04/04 07:37:03;;;;;;;7.15;2.42;;;;;;;4.53;69.96;101214.50;1651174;84;26008;-74
2021/04/04 07:39:45;;;;;;;6.60;2.58;;;;;;;4.62;68.30;101212.38;1686011;84;25961;-74
2021/04/04 07:42:37;;;;;;;5.53;2.25;;;;;;;4.69;68.58;101215.34;1708370;82;26531;-74
2021/04/04 07:45:19;;;;;;;5.40;2.80;;;;;;;4.80;67.52;101212.59;1718331;82;25955;-75
2021/04/04 07:48:16;;;;;;;4.53;2.40;;;;;;;4.86;66.95;101211.20;1696505;82;27562;-74
2021/04/04 07:51:05;;;;;;;7.00;2.10;;;;;;;4.92;67.08;101210.17;1730466;82;25770;-75
2021/04/04 07:53:50;;;;;;;4.60;2.27;;;;;;;5.05;66.24;101212.57;1713197;82;26159;-75
2021/04/04 07:56:35;;;;;;;5.83;2.30;;;;;;;5.12;65.82;101201.77;1686503;83;25832;-77
2021/04/04 07:59:27;;;;;;;2.85;2.00;;;;;;;5.17;64.16;101205.71;1658403;83;26526;-74
2021/04/04 08:02:29;;;;;;;4.22;2.45;;;;;;;5.21;65.08;101200.95;1653112;84;27554;-75
2021/04/04 08:05:12;;;;;;;3.58;2.30;;;;;;;5.23;65.41;101189.70;1665116;83;26045;-74
2021/04/04 08:08:07;;;;;;;4.35;2.02;;;;;;;5.36;64.83;101199.57;1633988;85;25807;-74
2021/04/04 08:11:01;;;;;;;4.40;1.90;;;;;;;5.46;64.70;101194.61;1683537;84;25826;-73
2021/04/04 08:13:42;;;;;;;3.83;1.65;;;;;;;5.64;64.49;101203.22;1650045;85;26068;-75
2021/04/04 08:16:33;;;;;;;;;;;;;;;5.69;63.13;101199.14;1672965;84;27560;-77
2021/04/04 08:19:00;;;;;;;5.03;1.87;;;;;;;5.63;62.67;101199.70;1711978;82;25780;-75
2021/04/04 08:22:01;;;;;;;3.55;1.82;;;;;;;5.62;63.27;101195.87;1670703;82;25791;-75
2021/04/04 08:24:52;;;;;;;5.07;1.70;;;;;;;5.66;62.41;101199.44;1697424;82;26009;-76
2021/04/04 08:27:56;;;;;;;3.62;1.65;;;;;;;5.67;61.36;101201.10;1696126;82;25851;-76
2021/04/04 08:30:50;;;;;;;5.00;1.90;;;;;;;5.78;62.05;101195.64;1729578;82;27527;-75
2021/04/04 08:33:22;;;;;;;5.80;2.22;;;;;;;5.96;63.03;101204.62;1692890;82;25944;-75
2021/04/04 08:35:53;;;;;;;4.97;2.37;;;;;;;6.21;62.93;101205.34;1695107;83;26033;-76
2021/04/04 08:38:39;;;;;;;5.00;2.00;;;;;;;6.30;61.63;101196.13;1691970;82;25863;-75
2021/04/04 08:41:09;;;;;;;5.83;2.30;;;;;;;6.33;62.17;101199.84;1699821;82;25779;-75
2021/04/04 08:43:40;;;;;;;3.97;1.83;;;;;;;6.30;61.86;101191.66;1675855;82;27745;-75
2021/04/04 08:46:15;;;;;;;5.22;2.00;;;;;;;6.32;60.05;101181.70;1678671;82;25760;-77
2021/04/04 08:48:43;;;;;;;3.25;1.70;;;;;;;6.25;59.95;101188.58;1694682;82;26264;-75
2021/04/04 08:51:14;;;;;;;6.03;2.10;;;;;;;6.16;60.65;101178.31;1671538;83;26347;-75
2021/04/04 08:53:46;;;;;;;2.47;1.80;;;;;;;6.18;60.08;101172.84;1674698;82;33009;-74
2021/04/04 08:56:16;;;;;;;5.62;2.90;;;;;;;6.28;60.61;101172.83;1690316;82;27562;-76
2021/04/04 08:58:51;;;;;;;3.17;1.67;;;;;;;6.40;59.82;101167.17;1725487;82;26180;-75
2021/04/04 09:01:29;;;;;;;3.85;1.98;;;;;;;6.50;58.32;101160.50;1704403;83;25892;-76
2021/04/04 09:04:07;;;;;;;3.60;2.10;;;;;;;6.60;56.40;101161.28;1796545;77;34852;-75
2021/04/04 09:06:43;;;;;;;3.92;2.20;;;;;;;6.72;55.71;101159.61;1738577;81;25779;-74
2021/04/04 09:09:27;;;;;;;7.40;2.50;;;;;;;6.60;56.26;101152.81;1743967;80;27344;-74
2021/04/04 09:12:00;;;;;;;6.80;3.55;;;;;;;6.65;57.80;101155.03;1735907;82;25856;-76
2021/04/04 09:14:38;;;;;;;4.47;2.35;;;;;;;6.79;58.01;101162.52;1709466;82;25838;-75
2021/04/04 09:17:12;;;;;;;3.85;2.27;;;;;;;6.85;57.32;101159.25;1710578;82;26116;-75
2021/04/04 09:19:44;;;;;;;3.58;2.22;;;;;;;6.85;56.54;101160.09;1708645;82;25906;-75
2021/04/04 09:22:17;;;;;;;5.03;2.37;;;;;;;6.78;55.99;101167.48;1706550;82;27363;-76
2021/04/04 09:24:56;;;;;;;3.75;1.77;;;;;;;6.75;55.15;101166.47;1733550;82;26472;-76
2021/04/04 09:27:43;;;;;;;2.58;1.27;;;;;;;6.81;55.85;101159.20;1719634;81;25855;-74
2021/04/04 09:30:23;;;;;;;3.55;2.37;;;;;;;6.88;55.88;101150.98;1691154;82;26459;-76
2021/04/04 09:32:54;;;;;;;3.85;2.10;;;;;;;6.96;52.82;101146.58;1734321;82;26102;-76
2021/04/04 09:35:23;;;;;;;2.22;1.27;;;;;;;7.00;52.88;101144.44;1707939;82;27618;-76
2021/04/04 09:37:55;;;;;;;3.92;2.50;;;;;;;7.06;53.99;101155.81;1682648;82;26237;-75
2021/04/04 09:40:24;;;;;;;4.58;2.35;;;;;;;7.18;54.49;101153.78;1709777;82;25825;-76
2021/04/04 09:42:54;;;;;;;6.10;2.15;;;;;;;7.23;54.35;101149.66;1734620;82;26121;-75
2021/04/04 09:45:25;;;;;;;2.23;1.43;;;;;;;7.32;54.38;101156.75;1683678;82;25920;-76
2021/04/04 09:47:54;;;;;;;5.05;1.52;;;;;;;7.31;53.21;101148.92;1697211;82;27816;-75
2021/04/04 09:50:30;;;;;;;4.17;3.05;;;;;;;7.37;53.63;101142.48;1709626;82;25869;-75
2021/04/04 09:52:58;;;;;;;5.85;3.02;;;;;;;7.43;53.28;101147.69;1735930;82;25731;-73
2021/04/04 09:55:27;;;;;;;5.25;2.40;;;;;;;7.41;53.12;101133.20;1734071;82;26376;-75
2021/04/04 09:57:57;;;;;;;3.62;2.50;;;;;;;7.47;52.79;101128.58;1709607;82;25821;-75
2021/04/04 10:00:40;;;;;;;5.58;2.37;;;;;;;7.48;53.42;101128.94;1663843;82;27420;-74
2021/04/04 10:03:15;;;;;;;3.35;2.12;;;;;;;7.55;53.22;101124.64;1700368;83;25989;-74
2021/04/04 10:05:50;;;;;;;3.12;1.82;;;;;;;7.62;52.47;101120.86;1664978;83;25884;-75
2021/04/04 10:08:25;;;;;;;5.62;2.02;;;;;;;7.68;52.89;101125.56;1674210;82;26110;-75
2021/04/04 10:10:57;;;;;;;4.10;1.77;;;;;;;7.65;51.47;101120.08;1679072;83;25751;-75
2021/04/04 10:13:29;;;;;;;4.97;2.47;;;;;;;7.54;51.83;101117.65;1724262;82;28445;-76
2021/04/04 10:15:57;;;;;;;;;;;;;;;7.47;50.38;101109.92;1660579;83;25783;-75
2021/04/04 10:18:26;;;;;;;4.45;3.20;;;;;;;7.35;50.66;101109.83;1683830;82;25777;-75
2021/04/04 10:20:57;;;;;;;4.50;2.72;;;;;;;7.31;50.08;101104.47;1681493;84;25863;-73
2021/04/04 10:23:34;;;;;;;3.20;1.92;;;;;;;7.35;49.60;101100.50;1666174;82;26188;-75
2021/04/04 10:26:06;;;;;;;3.98;1.75;;;;;;;7.41;49.57;101099.88;1655408;83;28484;-75
2021/04/04 10:28:53;;;;;;;2.08;1.52;;;;;;;7.48;48.34;101103.61;1684745;82;25824;-75
2021/04/04 10:31:23;;;;;;;2.45;1.15;;;;;;;7.55;48.75;101098.47;1691920;82;25870;-76
2021/04/04 10:34:03;;;;;;;1.82;1.17;;;;;;;7.61;46.79;101096.54;1681410;82;26012;-74
2021/04/04 10:36:31;;;;;;;2.58;1.02;;;;;;;7.68;45.82;101094.41;1693704;83;26033;-75
2021/04/04 10:38:59;;;;;;;1.98;0.98;;;;;;;7.76;47.46;101093.65;1682154;84;27542;-74
2021/04/04 10:41:33;;;;;;;2.12;1.00;;;;;;;7.79;46.81;101083.50;1681794;84;25845;-74
2021/04/04 10:44:00;;;;;;;1.60;0.80;;;;;;;7.85;44.07;101084.69;1705597;83;25818;-77
2021/04/04 10:46:35;;;;;;;1.82;1.20;;;;;;;7.88;46.39;101075.05;1697651;82;25790;-76
2021/04/04 10:49:04;;;;;;;3.12;1.10;;;;;;;7.95;45.28;101081.43;1678083;83;25839;-75
2021/04/04 10:51:32;;;;;;;2.27;1.27;;;;;;;7.96;46.39;101074.24;1698030;82;28234;-76
2021/04/04 10:54:00;;;;;;;2.33;1.10;;;;;;;8.01;45.98;101074.61;1652217;85;26092;-76
2021/04/04 10:56:30;;;;;;;2.58;1.10;;;;;;;8.05;46.20;101071.97;1642241;82;25911;-76
2021/04/04 10:58:59;;;;;;;2.02;1.17;;;;;;;8.05;45.58;101058.13;1705707;83;25831;-75
2021/04/04 11:01:32;;;;;;;1.45;0.90;;;;;;;8.18;46.63;101065.70;1676078;83;25958;-74
2021/04/04 11:04:01;;;;;;;2.10;1.30;;;;;;;8.26;44.31;101067.09;1682747;82;28441;-75
2021/04/04 11:06:28;;;;;;;2.77;2.15;;;;;;;8.24;45.48;101063.22;1715151;82;26249;-74
2021/04/04 11:08:56;;;;;;;2.05;1.27;;;;;;;8.26;45.06;101057.26;1685947;82;25917;-75
2021/04/04 11:11:25;;;;;;;1.32;1.00;;;;;;;8.32;46.67;101050.43;1708730;82;25801;-74
2021/04/04 11:13:55;;;;;;;1.82;0.98;;;;;;;8.43;45.06;101050.14;1678231;83;25984;-77
2021/04/04 11:16:26;;;;;;;1.90;1.20;;;;;;;8.35;45.24;101043.45;1734153;81;27598;-75
2021/04/04 11:18:57;;;;;;;1.47;1.10;;;;;;;8.29;43.91;101042.77;1700163;83;25853;-76
2021/04/04 11:21:34;;;;;;;;;;;;;;;8.29;44.56;101033.42;1692242;83;26025;-75
2021/04/04 11:24:01;;;;;;;3.05;1.17;;;;;;;8.40;45.79;101031.27;1685812;83;26179;-76
2021/04/04 11:26:33;;;;;;;2.80;0.85;;;;;;;8.47;45.98;101035.47;1708745;82;26493;-75
2021/04/04 11:29:12;;;;;;;2.45;1.40;;;;;;;8.55;42.81;101031.51;1702521;82;28298;-75
2021/04/04 11:31:43;;;;;;;1.62;0.82;;;;;;;8.51;43.38;101029.64;1732754;82;26153;-76
2021/04/04 11:34:40;;;;;;;1.98;1.10;;;;;;;8.44;42.91;101021.13;1685558;81;25923;-74
2021/04/04 11:37:19;;;;;;;2.30;1.22;;;;;;;8.33;42.51;101021.42;1672647;83;25986;-77
2021/04/04 11:40:10;;;;;;;2.65;1.15;;;;;;;8.10;43.08;101019.81;1710257;82;25963;-75
2021/04/04 11:42:38;;;;;;;3.60;1.55;;;;;;;7.97;44.16;101022.09;1717654;83;27555;-78
2021/04/04 11:45:07;;;;;;;2.72;1.55;;;;;;;7.97;44.79;101019.91;1644218;83;26481;-75
2021/04/04 11:47:35;;;;;;;2.20;1.42;;;;;;;7.94;43.03;101014.88;1697218;83;25810;-76
2021/04/04 11:50:22;;;;;;;2.72;1.50;;;;;;;8.00;44.97;101008.94;1689804;83;26406;-74
2021/04/04 11:52:50;;;;;;;2.65;1.67;;;;;;;8.08;44.17;101010.30;1736596;81;25976;-75
2021/04/04 11:55:20;;;;;;;3.22;1.47;;;;;;;8.09;44.03;100995.94;1689329;81;27717;-75
2021/04/04 11:57:48;;;;;;;3.62;1.07;;;;;;;8.07;43.66;101001.45;1715429;81;25921;-75
2021/04/04 12:00:22;;;;;;;2.17;1.20;;;;;;;8.00;42.27;100999.59;1719379;81;26340;-75
2021/04/04 12:05:38;;;;;;;2.17;1.30;;;;;;;8.31;44.02;100981.56;1827659;77;25891;-75
2021/04/04 12:08:07;;;;;;;2.33;1.12;;;;;;;8.45;42.95;100983.58;1756005;78;25859;-75
2021/04/04 12:10:42;;;;;;;2.72;1.10;;;;;;;8.57;42.82;100976.11;1776212;80;28084;-76
2021/04/04 12:13:15;;;;;;;1.70;0.75;;;;;;;8.69;42.81;100968.59;1801830;78;26540;-76